Time;durP1;ratioP1;P1;durP2;ratioP2;P2;SDS_P1;SDS_P2;PMS_P1;PMS_P2;Temp;Humidity;BMP_temperature;BMP_pressure;BME280_temperature;BME280_humidity;BME280_pressure;Samples;Min_cycle;Max_cycle;Signal;HPM_P1;HPM_P2
2023/06/08 00:00:04;;;;;;;13.53;8.23;;;17.50;99.90;;;;;;5041745;28;20432;-74
2023/06/08 00:02:31;;;;;;;8.87;7.97;;;17.50;99.90;;;;;;5047052;28;20509;-73
2023/06/08 00:05:02;;;;;;;11.90;8.27;;;17.40;99.90;;;;;;5049376;28;21013;-74
2023/06/08 00:07:30;;;;;;;9.97;8.07;;;17.40;99.90;;;;;;5058168;28;20547;-74
2023/06/08 00:09:58;;;;;;;9.13;8.20;;;17.40;99.90;;;;;;5050351;28;20476;-74
2023/06/08 00:12:25;;;;;;;9.30;8.30;;;17.30;99.90;;;;;;5049574;28;20455;-74
2023/06/08 00:14:51;;;;;;;15.13;9.43;;;17.30;99.90;;;;;;5050144;28;20448;-74
2023/06/08 00:17:18;;;;;;;11.00;9.30;;;17.20;99.90;;;;;;5050181;28;20501;-73
2023/06/08 00:19:45;;;;;;;13.60;9.00;;;17.20;99.90;;;;;;5049498;28;20452;-74
2023/06/08 00:22:12;;;;;;;9.97;8.93;;;17.20;99.90;;;;;;5050045;28;20474;-74
2023/06/08 00:24:40;;;;;;;10.73;9.17;;;17.20;99.90;;;;;;5049347;28;20488;-73
2023/06/08 00:27:09;;;;;;;11.70;9.27;;;17.10;99.90;;;;;;5049894;28;20415;-74
2023/06/08 00:29:35;;;;;;;10.30;8.37;;;17.30;99.90;;;;;;5049821;28;20488;-74
2023/06/08 00:32:02;;;;;;;11.37;9.70;;;17.10;99.90;;;;;;5043179;28;20542;-74
2023/06/08 00:34:29;;;;;;;10.73;9.23;;;17.00;99.90;;;;;;5049644;28;20863;-74
2023/06/08 00:36:56;;;;;;;13.07;9.60;;;16.90;99.90;;;;;;5049700;28;20460;-73
2023/06/08 00:39:22;;;;;;;11.20;9.67;;;16.90;99.90;;;;;;5042273;28;20467;-74
2023/06/08 00:41:50;;;;;;;12.73;9.77;;;16.90;99.90;;;;;;5049067;28;20472;-74
2023/06/08 00:44:17;;;;;;;10.50;8.83;;;16.80;99.90;;;;;;5049961;28;20452;-74
2023/06/08 00:46:44;;;;;;;10.67;9.50;;;16.80;99.90;;;;;;5049908;28;20452;-74
2023/06/08 00:49:15;;;;;;;10.53;9.37;;;16.80;99.90;;;;;;5046177;28;20481;-73
2023/06/08 00:51:43;;;;;;;11.73;9.43;;;16.80;99.90;;;;;;5047741;28;20614;-73
2023/06/08 00:54:12;;;;;;;10.27;9.17;;;16.70;99.90;;;;;;5049991;28;20431;-74
2023/06/08 00:56:40;;;;;;;11.97;10.40;;;16.70;99.90;;;;;;5049694;28;20510;-74
2023/06/08 00:59:10;;;;;;;12.40;9.80;;;16.70;99.90;;;;;;5051356;28;20456;-73
2023/06/08 01:01:38;;;;;;;12.47;10.03;;;16.60;99.90;;;;;;5052939;28;20427;-74
2023/06/08 01:04:06;;;;;;;13.10;10.10;;;16.60;99.90;;;;;;5048548;28;21041;-73
2023/06/08 01:06:35;;;;;;;13.87;10.40;;;16.60;99.90;;;;;;5051010;28;20448;-74
2023/06/08 01:09:14;;;;;;;13.87;9.67;;;16.50;99.90;;;;;;5052286;28;21079;-74
2023/06/08 01:11:53;;;;;;;14.07;10.17;;;16.50;99.90;;;;;;5052624;28;21042;-74
2023/06/08 01:14:29;;;;;;;15.27;10.77;;;16.50;99.90;;;;;;5053159;28;20502;-74
2023/06/08 01:17:00;;;;;;;11.33;9.80;;;16.50;99.90;;;;;;5045374;28;20483;-73
2023/06/08 01:19:38;;;;;;;14.77;11.70;;;16.50;99.90;;;;;;5052347;28;20456;-73
2023/06/08 01:22:22;;;;;;;13.57;10.33;;;16.40;99.90;;;;;;5053012;28;20446;-72
2023/06/08 01:24:52;;;;;;;14.27;10.60;;;16.40;99.90;;;;;;5052764;28;20514;-72
2023/06/08 01:27:20;;;;;;;16.90;10.67;;;16.40;99.90;;;;;;5053200;28;20480;-72
2023/06/08 01:29:48;;;;;;;12.37;10.10;;;16.40;99.90;;;;;;5052525;28;20484;-73
2023/06/08 01:32:15;;;;;;;11.80;10.40;;;16.30;99.90;;;;;;5051138;28;20509;-73
2023/06/08 01:34:42;;;;;;;13.67;10.30;;;16.30;99.90;;;;;;5052409;28;20826;-73
2023/06/08 01:37:15;;;;;;;14.87;11.17;;;16.30;99.90;;;;;;5051698;28;20460;-73
2023/06/08 01:39:48;;;;;;;12.53;10.83;;;16.30;99.90;;;;;;5052756;28;20500;-73
2023/06/08 01:42:18;;;;;;;13.90;10.80;;;16.20;99.90;;;;;;5052605;28;20472;-73
2023/06/08 01:44:53;;;;;;;16.23;10.90;;;16.20;99.90;;;;;;5052537;28;20456;-72
2023/06/08 01:47:21;;;;;;;20.97;10.50;;;16.20;99.90;;;;;;5052606;28;20492;-73
2023/06/08 01:49:48;;;;;;;13.43;11.00;;;16.20;99.90;;;;;;5043152;28;20996;-73
2023/06/08 01:52:15;;;;;;;14.30;10.77;;;16.20;99.90;;;;;;5051602;28;20480;-73
2023/06/08 01:54:42;;;;;;;15.50;11.60;;;16.20;99.90;;;;;;5053490;28;20852;-73
2023/06/08 01:57:08;;;;;;;11.90;10.40;;;16.20;99.90;;;;;;5058233;28;20456;-73
2023/06/08 01:59:36;;;;;;;13.97;11.50;;;16.10;99.90;;;;;;5052077;28;21094;-73
2023/06/08 02:02:03;;;;;;;12.60;11.30;;;16.10;99.90;;;;;;5058249;28;20508;-73
2023/06/08 02:04:30;;;;;;;20.53;11.87;;;16.10;99.90;;;;;;5048480;28;20475;-74
2023/06/08 02:06:57;;;;;;;16.17;11.30;;;16.10;99.90;;;;;;5051856;28;20933;-73
2023/06/08 02:09:24;;;;;;;15.10;11.53;;;16.10;99.90;;;;;;5052026;28;20549;-73
2023/06/08 02:11:51;;;;;;;16.40;10.90;;;16.10;99.90;;;;;;5050747;28;20479;-73
2023/06/08 02:14:17;;;;;;;16.83;11.50;;;16.00;99.90;;;;;;5052024;28;20514;-73
2023/06/08 02:16:46;;;;;;;13.00;10.53;;;16.00;99.90;;;;;;5050745;28;20515;-73
2023/06/08 02:19:14;;;;;;;14.30;11.67;;;16.00;99.90;;;;;;5052043;28;20456;-72
2023/06/08 02:21:41;;;;;;;16.20;12.37;;;16.00;99.90;;;;;;5051437;28;20560;-73
2023/06/08 02:24:08;;;;;;;14.40;11.77;;;16.00;99.90;;;;;;5051835;28;21004;-73
2023/06/08 02:26:35;;;;;;;14.40;11.80;;;16.00;99.90;;;;;;5051108;28;20503;-73
2023/06/08 02:29:01;;;;;;;17.57;11.90;;;15.90;99.90;;;;;;5051777;28;20532;-73
2023/06/08 02:31:28;;;;;;;12.97;11.67;;;15.90;99.90;;;;;;5050528;28;20453;-73
2023/06/08 02:33:56;;;;;;;15.33;11.67;;;15.90;99.90;;;;;;5051410;28;20445;-73
2023/06/08 02:36:23;;;;;;;17.47;11.93;;;15.90;99.90;;;;;;5051593;28;20445;-73
2023/06/08 02:38:51;;;;;;;14.33;11.83;;;15.80;99.90;;;;;;5049815;28;20795;-73
2023/06/08 02:41:17;;;;;;;12.73;11.43;;;15.80;99.90;;;;;;5051211;28;20461;-73
2023/06/08 02:43:44;;;;;;;12.60;10.97;;;15.80;99.90;;;;;;5051410;28;20523;-73
2023/06/08 02:46:10;;;;;;;12.43;11.17;;;15.80;99.90;;;;;;5051381;28;20477;-73
2023/06/08 02:48:37;;;;;;;17.03;12.20;;;15.70;99.90;;;;;;5051235;28;20477;-73
2023/06/08 02:51:05;;;;;;;13.50;12.10;;;15.70;99.90;;;;;;5051119;28;21035;-74
2023/06/08 02:53:32;;;;;;;15.50;12.07;;;15.70;99.90;;;;;;5051238;28;20526;-73
2023/06/08 02:55:58;;;;;;;20.47;11.83;;;15.60;99.90;;;;;;5059094;28;21018;-74
2023/06/08 02:58:25;;;;;;;15.07;11.67;;;15.60;99.90;;;;;;5051447;28;20452;-74
2023/06/08 03:00:53;;;;;;;15.87;13.00;;;15.60;99.90;;;;;;5050846;28;20448;-73
2023/06/08 03:03:22;;;;;;;17.00;12.67;;;15.60;99.90;;;;;;5050907;28;20488;-73
2023/06/08 03:05:50;;;;;;;14.13;11.90;;;15.60;99.90;;;;;;5049998;28;20962;-73
2023/06/08 03:08:19;;;;;;;18.63;11.63;;;15.60;99.90;;;;;;5050803;28;20485;-74
2023/06/08 03:10:46;;;;;;;13.30;11.90;;;15.50;99.90;;;;;;5050761;28;20453;-73
2023/06/08 03:13:12;;;;;;;17.00;11.93;;;15.50;99.90;;;;;;5050815;28;20538;-73
2023/06/08 03:15:41;;;;;;;13.43;11.97;;;15.50;99.90;;;;;;5050760;28;20452;-73
2023/06/08 03:18:08;;;;;;;15.57;11.77;;;15.50;99.90;;;;;;5050958;28;20457;-73
2023/06/08 03:20:34;;;;;;;14.40;11.10;;;15.40;99.90;;;;;;5047305;28;20458;-73
2023/06/08 03:23:01;;;;;;;14.80;12.33;;;15.40;99.90;;;;;;5041957;28;20469;-73
2023/06/08 03:25:29;;;;;;;13.90;12.40;;;15.40;99.90;;;;;;5050599;28;20556;-73
2023/06/08 03:27:55;;;;;;;13.10;11.80;;;15.40;99.90;;;;;;5050502;28;20936;-74
2023/06/08 03:30:22;;;;;;;13.70;11.50;;;15.40;99.90;;;;;;5050223;28;20485;-73
2023/06/08 03:32:52;;;;;;;15.80;11.43;;;15.40;99.90;;;;;;5050035;28;20476;-74
2023/06/08 03:35:19;;;;;;;14.13;12.63;;;15.40;99.90;;;;;;5050186;28;20600;-73
2023/06/08 03:37:46;;;;;;;17.53;12.67;;;15.40;99.90;;;;;;5050440;28;20450;-74
2023/06/08 03:40:13;;;;;;;13.00;11.47;;;15.40;99.90;;;;;;5050421;28;20904;-74
2023/06/08 03:42:41;;;;;;;13.60;12.00;;;15.40;99.90;;;;;;5050241;28;20519;-73
2023/06/08 03:45:08;;;;;;;15.07;12.70;;;15.40;99.90;;;;;;5050502;28;20511;-74
2023/06/08 03:47:34;;;;;;;17.47;11.90;;;15.30;99.90;;;;;;5050100;28;20453;-75
2023/06/08 03:50:01;;;;;;;17.13;12.67;;;15.40;99.90;;;;;;5047011;28;20909;-74
2023/06/08 03:52:28;;;;;;;16.63;12.43;;;15.30;99.90;;;;;;5050554;28;20529;-74
2023/06/08 03:54:54;;;;;;;17.30;12.50;;;15.40;99.90;;;;;;5042716;28;20459;-74
2023/06/08 03:57:21;;;;;;;14.90;12.00;;;15.40;99.90;;;;;;5050266;28;20475;-74
2023/06/08 03:59:49;;;;;;;15.43;11.57;;;15.40;99.90;;;;;;5050122;28;20441;-74
2023/06/08 04:02:15;;;;;;;14.43;11.70;;;15.40;99.90;;;;;;5049896;28;20472;-74
2023/06/08 04:04:44;;;;;;;13.23;11.80;;;15.40;99.90;;;;;;5049932;28;21011;-74
2023/06/08 04:07:11;;;;;;;13.50;11.83;;;15.40;99.90;;;;;;5049546;28;20455;-74
2023/06/08 04:09:38;;;;;;;23.40;12.40;;;15.40;99.90;;;;;;5050100;28;20484;-74
2023/06/08 04:12:06;;;;;;;15.20;12.03;;;15.50;99.90;;;;;;5041968;28;20481;-74
2023/06/08 04:14:33;;;;;;;14.57;12.50;;;15.40;99.90;;;;;;5049832;28;20553;-74
2023/06/08 04:17:01;;;;;;;15.80;11.90;;;15.50;99.90;;;;;;5058442;28;20447;-74
2023/06/08 04:19:28;;;;;;;21.33;12.00;;;15.50;99.90;;;;;;5050147;28;20507;-74
2023/06/08 04:21:56;;;;;;;15.83;11.30;;;15.50;99.90;;;;;;5048723;28;20510;-74
2023/06/08 04:24:23;;;;;;;16.60;12.50;;;15.50;99.90;;;;;;5050057;28;20460;-74
2023/06/08 04:26:50;;;;;;;14.40;11.70;;;15.50;99.90;;;;;;5049593;28;20464;-74
2023/06/08 04:29:17;;;;;;;16.40;11.93;;;15.60;99.90;;;;;;5049822;28;21119;-74
2023/06/08 04:31:43;;;;;;;13.90;11.43;;;15.60;99.90;;;;;;5041285;28;20518;-74
2023/06/08 04:34:11;;;;;;;13.10;11.50;;;15.70;99.90;;;;;;5050963;28;20491;-74
2023/06/08 04:36:40;;;;;;;16.50;12.80;;;15.70;99.90;;;;;;5053974;28;21110;-73
2023/06/08 04:39:08;;;;;;;16.60;11.60;;;15.80;99.90;;;;;;5051909;28;20457;-74
2023/06/08 04:41:35;;;;;;;14.13;10.87;;;15.90;99.90;;;;;;5053774;28;20460;-73
2023/06/08 04:44:02;;;;;;;16.40;11.50;;;15.90;99.90;;;;;;5053649;28;20449;-73
2023/06/08 04:46:30;;;;;;;14.30;10.93;;;16.00;99.90;;;;;;5054036;28;20510;-75
2023/06/08 04:48:56;;;;;;;14.40;11.80;;;16.10;99.90;;;;;;5053432;28;20452;-74
2023/06/08 04:51:24;;;;;;;14.07;11.20;;;16.20;99.90;;;;;;5053494;28;20430;-73
2023/06/08 04:53:53;;;;;;;17.93;11.83;;;16.20;99.90;;;;;;5049389;28;21007;-74
2023/06/08 04:56:20;;;;;;;13.20;11.50;;;16.30;99.90;;;;;;5053711;28;20933;-73
2023/06/08 04:58:47;;;;;;;23.70;11.93;;;16.30;99.90;;;;;;5053182;28;20957;-73
2023/06/08 05:01:13;;;;;;;13.70;11.10;;;16.40;99.90;;;;;;5052528;28;20444;-74
2023/06/08 05:03:40;;;;;;;13.40;10.60;;;16.50;99.90;;;;;;5053072;28;20976;-74
2023/06/08 05:06:07;;;;;;;13.00;11.80;;;16.60;99.90;;;;;;5053139;28;20884;-74
2023/06/08 05:08:35;;;;;;;13.30;11.57;;;16.70;99.90;;;;;;5053254;28;20521;-74
2023/06/08 05:11:02;;;;;;;13.70;11.03;;;16.80;99.90;;;;;;5052312;28;20500;-73
2023/06/08 05:13:28;;;;;;;14.57;10.93;;;16.90;99.90;;;;;;5052925;28;20476;-73
2023/06/08 05:15:58;;;;;;;15.17;11.07;;;17.00;99.90;;;;;;5049338;28;20440;-73
2023/06/08 05:18:25;;;;;;;12.53;11.17;;;17.10;99.90;;;;;;5058831;28;20864;-73
2023/06/08 05:20:51;;;;;;;13.13;10.33;;;17.20;99.90;;;;;;5054637;28;20531;-73
2023/06/08 05:23:18;;;;;;;17.53;11.13;;;17.30;99.90;;;;;;5051337;28;20476;-72
2023/06/08 05:25:46;;;;;;;13.70;10.00;;;17.40;99.90;;;;;;5051944;28;20506;-72
2023/06/08 05:28:12;;;;;;;11.33;10.03;;;17.50;99.90;;;;;;5052384;28;20487;-72
2023/06/08 05:30:39;;;;;;;20.90;10.30;;;17.70;99.90;;;;;;5051935;28;20484;-72
2023/06/08 05:33:06;;;;;;;15.60;7.80;;;17.80;99.90;;;;;;5052195;28;20505;-68
2023/06/08 05:35:32;;;;;;;15.60;9.43;;;18.00;99.90;;;;;;5041019;28;20440;-69
2023/06/08 05:38:00;;;;;;;11.33;9.80;;;18.20;99.90;;;;;;5044034;28;20841;-68
2023/06/08 05:40:26;;;;;;;9.83;8.03;;;18.50;99.90;;;;;;5051178;28;20427;-69
2023/06/08 05:42:54;;;;;;;10.40;9.40;;;18.70;99.90;;;;;;5050862;28;20447;-68
2023/06/08 05:45:21;;;;;;;8.67;7.53;;;18.90;99.90;;;;;;5046079;28;20648;-69
2023/06/08 05:47:48;;;;;;;11.57;8.90;;;19.00;99.90;;;;;;5050988;28;20915;-69
2023/06/08 05:50:14;;;;;;;9.57;8.40;;;19.20;99.90;;;;;;5048614;28;21060;-69
2023/06/08 05:52:41;;;;;;;13.73;9.37;;;19.40;99.90;;;;;;5040499;28;20492;-69
2023/06/08 05:55:08;;;;;;;15.30;8.80;;;19.60;99.90;;;;;;5050621;28;20431;-68
2023/06/08 05:57:35;;;;;;;11.77;9.63;;;19.70;99.90;;;;;;5051316;28;20989;-69
2023/06/08 06:00:09;;;;;;;10.70;9.33;;;19.60;99.90;;;;;;5051024;28;20431;-69
2023/06/08 06:02:36;;;;;;;12.57;8.80;;;19.50;99.90;;;;;;5047904;28;20493;-69
2023/06/08 06:05:02;;;;;;;11.60;9.50;;;19.30;99.90;;;;;;5051075;28;20448;-69
2023/06/08 06:07:29;;;;;;;11.70;9.33;;;19.40;99.90;;;;;;5052229;28;20453;-71
2023/06/08 06:09:55;;;;;;;11.20;9.30;;;19.50;99.90;;;;;;5051539;28;20774;-70
2023/06/08 06:12:22;;;;;;;15.97;9.93;;;19.70;99.90;;;;;;5059975;28;20468;-70
2023/06/08 06:14:52;;;;;;;10.73;9.63;;;19.80;99.90;;;;;;5050668;28;20423;-69
2023/06/08 06:17:20;;;;;;;14.80;10.00;;;20.00;99.90;;;;;;5052065;28;20463;-70
2023/06/08 06:19:47;;;;;;;12.30;9.07;;;20.10;99.90;;;;;;5060069;28;20451;-69
2023/06/08 06:22:13;;;;;;;10.40;9.30;;;20.30;99.90;;;;;;5051569;28;20524;-69
2023/06/08 06:24:40;;;;;;;10.10;8.83;;;20.40;99.90;;;;;;5051241;28;20457;-67
2023/06/08 06:27:07;;;;;;;10.87;8.87;;;20.60;99.90;;;;;;5051532;28;20456;-69
2023/06/08 06:29:34;;;;;;;11.73;9.40;;;20.80;99.90;;;;;;5051487;28;20982;-69
2023/06/08 06:32:00;;;;;;;12.10;9.30;;;21.00;99.90;;;;;;5051247;28;20472;-69
2023/06/08 06:34:28;;;;;;;19.10;9.80;;;21.20;99.90;;;;;;5059080;28;20423;-69
2023/06/08 06:36:56;;;;;;;10.63;9.13;;;21.30;99.90;;;;;;5051422;28;20448;-69
2023/06/08 06:39:23;;;;;;;13.00;10.43;;;21.30;99.90;;;;;;5046057;28;20878;-69
2023/06/08 06:41:50;;;;;;;14.17;9.30;;;21.20;99.90;;;;;;5036189;28;20895;-69
2023/06/08 06:44:16;;;;;;;9.53;8.60;;;21.20;99.90;;;;;;5042764;28;20842;-68
2023/06/08 06:46:44;;;;;;;13.53;8.70;;;21.40;99.90;;;;;;5043253;28;20508;-69
2023/06/08 06:49:10;;;;;;;11.87;9.10;;;21.60;99.90;;;;;;5051706;28;20530;-69
2023/06/08 06:51:40;;;;;;;9.80;8.73;;;21.80;99.90;;;;;;5050878;28;21166;-69
2023/06/08 06:54:07;;;;;;;15.07;8.90;;;22.10;99.90;;;;;;5050136;28;20459;-69
2023/06/08 06:56:33;;;;;;;11.03;8.43;;;22.30;99.90;;;;;;5050259;28;20811;-69
2023/06/08 06:59:00;;;;;;;13.20;8.60;;;22.50;99.90;;;;;;5050898;28;20464;-69
2023/06/08 07:01:27;;;;;;;10.40;8.43;;;22.70;99.90;;;;;;5044364;28;20561;-69
2023/06/08 07:03:54;;;;;;;10.03;8.83;;;22.90;99.90;;;;;;5051101;28;20448;-69
2023/06/08 07:06:24;;;;;;;8.90;8.00;;;23.20;99.90;;;;;;5050908;28;20448;-69
2023/06/08 07:08:52;;;;;;;9.37;8.37;;;23.30;99.90;;;;;;5050631;28;20487;-69
2023/06/08 07:11:18;;;;;;;13.93;7.60;;;23.50;99.90;;;;;;5058528;28;20480;-69
2023/06/08 07:13:45;;;;;;;9.23;8.27;;;23.80;99.90;;;;;;5051131;28;20484;-78
2023/06/08 07:16:12;;;;;;;13.17;8.07;;;23.80;99.90;;;;;;5050255;28;20456;-77
2023/06/08 07:18:38;;;;;;;10.37;8.20;;;23.90;99.90;;;;;;5051391;28;20520;-77
2023/06/08 07:21:05;;;;;;;8.80;8.00;;;23.90;99.90;;;;;;5047329;28;20507;-76
2023/06/08 07:23:32;;;;;;;14.60;8.47;;;23.70;99.90;;;;;;5056638;28;20471;-76
2023/06/08 07:26:00;;;;;;;9.40;7.70;;;23.70;99.90;;;;;;5052782;28;20510;-76
2023/06/08 07:28:26;;;;;;;10.00;8.17;;;23.90;99.90;;;;;;5055640;28;20464;-77
2023/06/08 07:30:53;;;;;;;11.10;7.90;;;24.00;99.90;;;;;;5058626;28;20482;-76
2023/06/08 07:33:19;;;;;;;13.87;8.43;;;24.20;99.90;;;;;;5057434;28;20550;-77
2023/06/08 07:35:46;;;;;;;9.00;8.10;;;24.40;99.90;;;;;;5050157;28;20456;-76
2023/06/08 07:38:14;;;;;;;9.70;7.60;;;24.60;99.90;;;;;;5050379;28;20444;-76
2023/06/08 07:40:41;;;;;;;10.60;8.07;;;24.90;99.90;;;;;;5049432;28;20599;-76
2023/06/08 07:43:09;;;;;;;11.07;8.30;;;25.00;99.90;;;;;;5049875;28;20530;-77
2023/06/08 07:45:35;;;;;;;9.13;8.00;;;25.20;99.90;;;;;;5050801;28;20518;-77
2023/06/08 07:48:02;;;;;;;10.20;8.00;;;25.20;99.90;;;;;;5049398;28;20461;-77
2023/06/08 07:50:28;;;;;;;11.40;8.40;;;25.30;99.90;;;;;;5050121;28;20529;-77
2023/06/08 07:52:55;;;;;;;9.53;8.63;;;25.30;99.90;;;;;;5049984;28;20977;-76
2023/06/08 07:55:22;;;;;;;11.10;8.40;;;25.20;99.90;;;;;;5050082;28;20452;-77
2023/06/08 07:57:49;;;;;;;9.00;8.13;;;25.20;99.90;;;;;;5049332;28;20956;-77
2023/06/08 08:00:18;;;;;;;8.70;7.73;;;25.00;99.90;;;;;;5050364;28;20475;-77
2023/06/08 08:02:45;;;;;;;13.03;8.40;;;25.00;99.90;;;;;;5050187;28;20589;-77
2023/06/08 08:05:11;;;;;;;11.07;8.10;;;25.10;99.90;;;;;;5050524;28;20944;-77
2023/06/08 08:07:40;;;;;;;9.77;8.07;;;25.20;99.90;;;;;;5045761;28;20984;-77
2023/06/08 08:10:08;;;;;;;8.20;7.40;;;25.30;99.90;;;;;;5053138;28;20519;-77
2023/06/08 08:12:34;;;;;;;10.90;7.97;;;25.30;99.90;;;;;;5054105;28;20534;-77
2023/06/08 08:15:01;;;;;;;9.90;8.07;;;25.50;99.90;;;;;;5054164;28;20461;-77
2023/06/08 08:17:29;;;;;;;12.53;7.30;;;25.50;99.90;;;;;;5054178;28;20452;-76
2023/06/08 08:19:56;;;;;;;8.83;7.93;;;25.50;99.90;;;;;;5062300;28;20835;-77
2023/06/08 08:22:23;;;;;;;8.70;7.90;;;25.50;99.90;;;;;;5048276;28;20487;-76
2023/06/08 08:24:49;;;;;;;10.57;7.73;;;25.70;99.90;;;;;;5049090;28;20538;-77
2023/06/08 08:27:16;;;;;;;8.23;7.07;;;25.90;99.90;;;;;;5046014;28;20510;-77
2023/06/08 08:29:43;;;;;;;10.63;6.83;;;26.20;99.90;;;;;;5053894;28;21125;-77
2023/06/08 08:32:10;;;;;;;9.40;7.37;;;26.50;99.90;;;;;;5050548;28;20492;-77
2023/06/08 08:34:38;;;;;;;8.80;7.90;;;26.80;99.90;;;;;;5053608;28;20456;-77
2023/06/08 08:37:05;;;;;;;12.93;6.50;;;27.00;99.90;;;;;;5048463;28;20509;-77
2023/06/08 08:39:32;;;;;;;9.00;8.10;;;26.80;99.90;;;;;;5051752;28;20945;-76
2023/06/08 08:42:04;;;;;;;8.87;7.97;;;26.80;99.90;;;;;;5051857;28;20910;-77
2023/06/08 08:44:33;;;;;;;9.13;7.13;;;26.80;99.90;;;;;;5053826;28;20502;-76
2023/06/08 08:47:02;;;;;;;10.60;8.43;;;27.10;99.90;;;;;;5052295;28;20452;-77
2023/06/08 08:49:36;;;;;;;10.23;8.57;;;27.10;99.90;;;;;;5053868;28;20448;-77
2023/06/08 08:52:08;;;;;;;7.80;7.10;;;26.80;99.90;;;;;;5053136;28;20853;-77
2023/06/08 08:54:36;;;;;;;8.23;7.43;;;26.60;99.90;;;;;;5052927;28;20467;-77
2023/06/08 08:57:03;;;;;;;13.33;8.30;;;26.80;99.90;;;;;;5053320;28;20448;-77
2023/06/08 08:59:32;;;;;;;10.07;8.53;;;26.90;99.90;;;;;;5053277;28;20452;-77
2023/06/08 09:01:59;;;;;;;9.40;8.50;;;26.50;99.90;;;;;;5052556;28;20472;-77
2023/06/08 09:04:26;;;;;;;11.87;8.10;;;26.10;99.90;;;;;;5053477;28;20448;-77
2023/06/08 09:06:52;;;;;;;10.03;7.70;;;26.20;99.90;;;;;;5053508;28;20838;-77
2023/06/08 09:09:20;;;;;;;10.93;7.70;;;26.50;99.90;;;;;;5050626;28;20951;-77
2023/06/08 09:11:58;;;;;;;9.27;7.17;;;26.50;99.90;;;;;;5052876;28;20495;-77
2023/06/08 09:14:25;;;;;;;15.70;8.63;;;26.60;99.90;;;;;;5045668;28;20999;-76
2023/06/08 09:16:52;;;;;;;9.57;8.17;;;26.50;99.90;;;;;;5052851;28;21158;-75
2023/06/08 09:19:19;;;;;;;11.53;7.83;;;26.40;99.90;;;;;;5037631;28;20460;-77
2023/06/08 09:21:46;;;;;;;10.17;8.07;;;26.20;99.90;;;;;;5060291;28;20480;-77
2023/06/08 09:24:14;;;;;;;8.50;7.60;;;26.50;99.90;;;;;;5045551;28;20460;-77
2023/06/08 09:26:47;;;;;;;9.80;6.70;;;26.60;99.90;;;;;;5052776;28;20464;-77
2023/06/08 09:29:31;;;;;;;8.37;7.60;;;26.70;99.90;;;;;;5052815;28;20460;-76
2023/06/08 09:31:57;;;;;;;9.70;8.37;;;26.90;99.90;;;;;;5044090;28;20495;-75
2023/06/08 09:34:25;;;;;;;7.73;7.03;;;27.00;99.90;;;;;;5052726;28;20862;-77
2023/06/08 09:36:52;;;;;;;8.10;7.30;;;27.10;99.90;;;;;;5059907;28;20494;-77
2023/06/08 09:39:19;;;;;;;9.83;7.77;;;27.50;99.90;;;;;;5051761;28;20525;-77
2023/06/08 09:41:57;;;;;;;8.47;7.57;;;27.80;99.90;;;;;;5060620;28;20468;-77
2023/06/08 09:44:23;;;;;;;8.03;7.23;;;28.10;99.90;;;;;;5047681;28;20452;-77
2023/06/08 09:46:50;;;;;;;8.87;7.97;;;28.30;99.90;;;;;;5052688;28;20506;-77
2023/06/08 09:49:18;;;;;;;9.50;8.07;;;28.60;99.90;;;;;;5052249;28;20804;-77
2023/06/08 09:51:48;;;;;;;10.07;7.83;;;28.80;99.90;;;;;;5052323;28;20492;-78
2023/06/08 09:54:16;;;;;;;8.97;8.07;;;28.30;99.90;;;;;;5052494;28;20556;-77
2023/06/08 09:56:46;;;;;;;10.80;8.10;;;28.20;99.90;;;;;;5055552;28;20499;-69
2023/06/08 09:59:16;;;;;;;9.30;8.40;;;28.10;99.90;;;;;;5052280;28;20456;-70
2023/06/08 10:01:45;;;;;;;10.00;8.10;;;27.80;99.90;;;;;;5048774;28;20501;-74
2023/06/08 10:04:21;;;;;;;10.73;8.37;;;27.70;99.90;;;;;;5039182;28;20458;-72
2023/06/08 10:06:51;;;;;;;8.63;7.83;;;27.70;99.90;;;;;;5049139;28;20980;-72
2023/06/08 10:09:20;;;;;;;8.47;7.77;;;27.70;99.90;;;;;;5042276;28;20883;-73
2023/06/08 10:11:48;;;;;;;7.80;7.10;;;27.90;99.90;;;;;;5045135;28;20500;-72
2023/06/08 10:14:18;;;;;;;8.40;7.60;;;28.00;99.90;;;;;;5043909;28;20488;-72
2023/06/08 10:16:47;;;;;;;8.90;8.00;;;28.20;99.90;;;;;;5042771;28;20457;-73
2023/06/08 10:19:14;;;;;;;8.83;7.73;;;28.40;99.90;;;;;;5045029;28;20449;-74
2023/06/08 10:21:41;;;;;;;9.33;7.67;;;28.40;99.90;;;;;;5048536;28;20453;-74
2023/06/08 10:24:09;;;;;;;9.53;7.50;;;28.30;99.90;;;;;;5049446;28;20460;-74
2023/06/08 10:26:35;;;;;;;8.87;8.07;;;28.40;99.90;;;;;;5041065;28;20541;-74
2023/06/08 10:29:10;;;;;;;8.37;7.73;;;28.60;99.90;;;;;;5039834;28;20945;-74
2023/06/08 10:31:40;;;;;;;8.47;7.67;;;28.60;99.90;;;;;;5042648;28;21057;-75
2023/06/08 10:34:09;;;;;;;7.97;7.27;;;28.70;99.90;;;;;;5044239;28;20455;-74
2023/06/08 10:36:39;;;;;;;8.93;8.00;;;28.90;99.90;;;;;;5044708;28;20512;-72
2023/06/08 10:39:10;;;;;;;10.10;7.50;;;28.80;99.90;;;;;;5040318;28;20472;-72
2023/06/08 10:41:44;;;;;;;10.60;7.93;;;28.80;99.90;;;;;;5041586;28;20445;-73
2023/06/08 10:44:29;;;;;;;8.70;7.80;;;28.60;99.90;;;;;;5041270;28;20498;-73
2023/06/08 10:47:00;;;;;;;11.40;8.70;;;28.40;99.90;;;;;;5046121;28;20452;-72
2023/06/08 10:49:31;;;;;;;8.73;7.93;;;28.20;99.90;;;;;;5044358;28;20551;-73
2023/06/08 10:51:59;;;;;;;8.37;7.67;;;28.30;99.90;;;;;;5037841;28;20879;-72
2023/06/08 10:54:27;;;;;;;7.87;7.17;;;28.30;99.90;;;;;;5046750;28;20467;-73
2023/06/08 10:56:56;;;;;;;8.93;7.87;;;28.40;99.90;;;;;;5047035;28;20461;-73
2023/06/08 10:59:34;;;;;;;9.07;7.33;;;28.60;99.90;;;;;;5049198;28;20448;-72
2023/06/08 11:02:04;;;;;;;7.83;7.13;;;28.80;99.90;;;;;;5042825;28;20557;-73
2023/06/08 11:04:31;;;;;;;8.10;7.40;;;28.70;99.90;;;;;;5037959;28;20896;-73
2023/06/08 11:07:02;;;;;;;12.50;11.20;;;28.50;99.90;;;;;;5047279;28;20457;-73
2023/06/08 11:09:31;;;;;;;7.37;6.77;;;28.60;99.90;;;;;;5044074;28;20544;-73
2023/06/08 11:11:58;;;;;;;8.53;7.10;;;28.80;99.90;;;;;;5044961;28;20494;-73
2023/06/08 11:14:24;;;;;;;9.23;7.80;;;28.90;99.90;;;;;;5039543;28;20481;-73
2023/06/08 11:16:52;;;;;;;8.20;7.40;;;28.70;99.90;;;;;;5040881;28;20449;-73
2023/06/08 11:19:20;;;;;;;12.07;7.73;;;28.60;99.90;;;;;;5041406;28;20532;-70
2023/06/08 11:21:51;;;;;;;10.33;7.17;;;28.70;99.90;;;;;;5046774;28;21058;-73
2023/06/08 11:24:18;;;;;;;8.07;7.27;;;28.50;99.90;;;;;;5046581;28;20545;-73
2023/06/08 11:26:45;;;;;;;9.63;7.13;;;28.30;99.90;;;;;;5030694;28;20937;-74
2023/06/08 11:29:12;;;;;;;9.30;7.37;;;28.40;99.90;;;;;;5040636;28;20463;-74
2023/06/08 11:31:41;;;;;;;8.10;7.30;;;28.70;99.90;;;;;;5038687;28;21205;-72
2023/06/08 11:34:08;;;;;;;8.07;7.37;;;29.20;99.90;;;;;;5045545;28;20543;-73
2023/06/08 11:36:38;;;;;;;10.13;7.03;;;29.70;99.90;;;;;;5054188;28;20880;-73
2023/06/08 11:39:05;;;;;;;8.20;7.50;;;29.90;99.90;;;;;;5037287;28;20510;-71
2023/06/08 11:41:32;;;;;;;7.43;6.67;;;29.60;99.90;;;;;;5046603;28;20832;-73
2023/06/08 11:43:59;;;;;;;12.23;7.33;;;29.40;99.90;;;;;;5042524;28;20453;-72
2023/06/08 11:46:27;;;;;;;7.67;6.93;;;29.40;99.90;;;;;;5045408;28;20455;-73
2023/06/08 11:49:03;;;;;;;9.50;7.20;;;29.50;99.90;;;;;;5048220;28;20527;-73
2023/06/08 11:51:31;;;;;;;7.00;6.30;;;29.50;99.90;;;;;;5036910;28;20483;-72
2023/06/08 11:53:59;;;;;;;7.40;6.70;;;29.20;99.90;;;;;;5040431;28;20468;-73
2023/06/08 11:56:35;;;;;;;7.47;6.77;;;29.20;99.90;;;;;;5048501;28;20952;-72
2023/06/08 11:59:03;;;;;;;7.67;6.93;;;29.20;99.90;;;;;;5045062;28;20542;-73
2023/06/08 12:01:30;;;;;;;6.80;6.23;;;28.90;99.90;;;;;;5041247;28;20526;-73
2023/06/08 12:03:56;;;;;;;6.90;6.30;;;28.60;99.90;;;;;;5043587;28;20445;-74
2023/06/08 12:06:26;;;;;;;7.57;6.33;;;28.40;99.90;;;;;;5045775;28;20986;-73
2023/06/08 12:08:53;;;;;;;10.67;7.33;;;28.30;99.90;;;;;;5047921;28;20467;-73
2023/06/08 12:11:21;;;;;;;7.33;6.63;;;28.00;99.90;;;;;;5039796;28;20484;-72
2023/06/08 12:13:48;;;;;;;6.40;5.90;;;27.60;99.90;;;;;;5035134;28;20461;-72
2023/06/08 12:16:15;;;;;;;7.40;6.13;;;27.60;99.90;;;;;;5043101;28;20498;-72
2023/06/08 12:18:44;;;;;;;8.43;6.90;;;28.10;99.90;;;;;;5047234;28;20841;-73
2023/06/08 12:21:13;;;;;;;7.27;6.57;;;28.50;99.90;;;;;;5047141;28;20529;-73
2023/06/08 12:23:40;;;;;;;7.87;7.10;;;28.60;99.90;;;;;;5039300;28;20482;-72
2023/06/08 12:26:07;;;;;;;9.10;6.53;;;28.40;99.90;;;;;;5036448;28;20453;-73
2023/06/08 12:28:35;;;;;;;6.70;6.00;;;28.20;99.90;;;;;;5042803;28;20487;-73
2023/06/08 12:31:01;;;;;;;6.67;6.10;;;28.00;99.90;;;;;;5047740;28;20906;-72
2023/06/08 12:33:28;;;;;;;6.80;6.10;;;27.70;99.90;;;;;;5038896;28;20493;-72
2023/06/08 12:35:55;;;;;;;6.93;6.27;;;27.60;99.90;;;;;;5037846;28;20453;-72
2023/06/08 12:38:21;;;;;;;6.97;6.13;;;27.70;99.90;;;;;;5040590;28;20957;-72